Time;durP1;ratioP1;P1;durP2;ratioP2;P2;SDS_P1;SDS_P2;PMS_P1;PMS_P2;Temp;Humidity;BMP_temperature;BMP_pressure;BME280_temperature;BME280_humidity;BME280_pressure;Samples;Min_cycle;Max_cycle;Signal;HPM_P1;HPM_P2
2020/12/24 00:01:13;;;;;;;0.93;0.80;;;9.40;99.90;;;;;;4965876;28;20207;-75
2020/12/24 00:03:39;;;;;;;1.50;1.20;;;9.40;99.90;;;;;;4965141;28;20232;-75
2020/12/24 00:06:05;;;;;;;0.90;0.73;;;9.40;99.90;;;;;;4965535;28;20207;-75
2020/12/24 00:08:32;;;;;;;0.90;0.77;;;9.40;99.90;;;;;;4966102;28;20672;-76
2020/12/24 00:10:59;;;;;;;1.65;1.30;;;9.40;99.90;;;;;;4966227;28;20723;-75
2020/12/24 00:13:25;;;;;;;1.38;0.70;;;9.40;99.90;;;;;;4965747;28;20287;-75
2020/12/24 00:15:51;;;;;;;0.80;0.70;;;9.40;99.90;;;;;;4960428;28;20205;-75
2020/12/24 00:18:18;;;;;;;1.00;0.80;;;9.40;99.90;;;;;;4949010;28;20211;-76
2020/12/24 00:20:44;;;;;;;1.00;0.90;;;9.40;99.90;;;;;;4948341;28;20883;-76
2020/12/24 00:23:10;;;;;;;0.88;0.80;;;9.40;99.90;;;;;;4966322;28;20211;-75
2020/12/24 00:25:38;;;;;;;1.85;1.00;;;9.40;99.90;;;;;;4962942;28;20628;-76
2020/12/24 00:28:05;;;;;;;2.55;0.90;;;9.40;99.90;;;;;;4960212;28;20459;-75
2020/12/24 00:30:31;;;;;;;1.60;0.98;;;9.30;99.90;;;;;;4965604;28;20215;-76
2020/12/24 00:32:57;;;;;;;2.95;0.80;;;9.30;99.90;;;;;;4951827;28;20623;-76
2020/12/24 00:35:24;;;;;;;1.55;0.90;;;9.30;99.90;;;;;;4946831;28;20259;-76
2020/12/24 00:37:50;;;;;;;1.33;0.90;;;9.40;99.90;;;;;;4949394;28;20201;-75
2020/12/24 00:40:16;;;;;;;1.35;0.80;;;9.40;99.90;;;;;;4960422;28;20205;-75
2020/12/24 00:42:43;;;;;;;0.90;0.77;;;9.40;99.90;;;;;;4957052;28;20216;-76
2020/12/24 00:45:09;;;;;;;2.08;0.95;;;9.40;99.90;;;;;;4970931;28;20889;-76
2020/12/24 00:47:35;;;;;;;1.17;1.00;;;9.40;99.90;;;;;;4953836;28;20205;-75
2020/12/24 00:50:02;;;;;;;1.70;0.80;;;9.40;99.90;;;;;;4953998;28;20224;-76
2020/12/24 00:52:28;;;;;;;1.55;0.93;;;9.40;99.90;;;;;;4953562;28;20785;-75
2020/12/24 00:54:54;;;;;;;1.25;1.00;;;9.30;99.90;;;;;;4954520;28;20205;-76
2020/12/24 00:57:20;;;;;;;2.75;0.80;;;9.30;99.90;;;;;;4962361;28;20208;-75
2020/12/24 00:59:47;;;;;;;1.13;0.90;;;9.30;99.90;;;;;;4964720;28;20583;-75
2020/12/24 01:02:14;;;;;;;1.70;0.80;;;9.30;99.90;;;;;;4962453;28;20208;-76
2020/12/24 01:04:40;;;;;;;3.65;0.98;;;9.30;99.90;;;;;;4962892;28;20226;-76
2020/12/24 01:07:06;;;;;;;1.52;0.80;;;9.30;99.90;;;;;;4963805;28;20255;-76
2020/12/24 01:09:32;;;;;;;1.10;1.00;;;9.30;99.90;;;;;;4970846;28;20226;-75
2020/12/24 01:11:58;;;;;;;2.55;1.02;;;9.30;99.90;;;;;;4972412;28;20207;-75
2020/12/24 01:14:25;;;;;;;0.88;0.80;;;9.20;99.90;;;;;;4972725;28;20228;-76
2020/12/24 01:16:52;;;;;;;0.90;0.80;;;9.20;99.90;;;;;;4973355;28;20211;-76
2020/12/24 01:19:18;;;;;;;2.58;0.85;;;9.10;99.90;;;;;;4972792;28;20207;-76
2020/12/24 01:21:47;;;;;;;1.70;0.95;;;9.00;99.90;;;;;;4972692;28;20271;-76
2020/12/24 01:24:14;;;;;;;3.55;1.20;;;9.00;99.90;;;;;;4972630;28;20220;-76
2020/12/24 01:26:45;;;;;;;1.00;0.90;;;9.00;99.90;;;;;;4973150;28;20203;-76
2020/12/24 01:29:12;;;;;;;2.55;1.38;;;8.90;99.90;;;;;;4973002;28;20219;-76
2020/12/24 01:31:43;;;;;;;1.67;1.10;;;8.90;99.90;;;;;;4972305;28;20218;-76
2020/12/24 01:34:10;;;;;;;2.38;1.13;;;8.90;99.90;;;;;;4972878;28;20286;-75
2020/12/24 01:36:36;;;;;;;2.25;0.90;;;8.90;99.90;;;;;;4972726;28;20771;-76
2020/12/24 01:39:02;;;;;;;1.48;1.00;;;8.80;99.90;;;;;;4972611;28;20200;-75
2020/12/24 01:41:28;;;;;;;5.18;1.13;;;8.80;99.90;;;;;;4972501;28;20261;-75
2020/12/24 01:43:55;;;;;;;2.17;1.30;;;8.80;99.90;;;;;;4970855;28;20651;-76
2020/12/24 01:46:21;;;;;;;0.90;0.80;;;8.70;99.90;;;;;;4970483;28;20204;-75
2020/12/24 01:48:47;;;;;;;1.05;0.80;;;8.70;99.90;;;;;;4971829;28;20242;-75
2020/12/24 01:51:24;;;;;;;1.20;0.90;;;8.70;99.90;;;;;;4972333;28;20215;-75
2020/12/24 01:53:50;;;;;;;1.45;1.00;;;8.70;99.90;;;;;;4971889;28;20224;-75
2020/12/24 01:56:16;;;;;;;1.00;0.90;;;8.70;99.90;;;;;;4972200;28;20223;-75
2020/12/24 01:58:43;;;;;;;1.00;0.85;;;8.70;99.90;;;;;;4972851;28;20291;-76
2020/12/24 02:01:09;;;;;;;0.80;0.70;;;8.70;99.90;;;;;;4971979;28;20562;-75
2020/12/24 02:03:36;;;;;;;2.53;1.20;;;8.70;99.90;;;;;;4971725;28;20227;-76
2020/12/24 02:06:03;;;;;;;1.45;0.90;;;8.70;99.90;;;;;;4972355;28;20203;-75
2020/12/24 02:08:30;;;;;;;0.80;0.70;;;8.60;99.90;;;;;;4972186;28;20199;-76
2020/12/24 02:10:56;;;;;;;1.02;0.93;;;8.60;99.90;;;;;;4972293;28;20223;-75
2020/12/24 02:13:22;;;;;;;1.15;0.82;;;8.60;99.90;;;;;;4970821;28;20231;-75
2020/12/24 02:15:48;;;;;;;0.95;0.70;;;8.60;99.90;;;;;;5040161;23;20820;-69
2020/12/24 02:18:14;;;;;;;1.27;0.85;;;8.60;99.90;;;;;;4990830;28;20205;-71
2020/12/24 02:20:43;;;;;;;1.33;1.00;;;8.60;99.90;;;;;;4971492;28;20200;-68
2020/12/24 02:23:10;;;;;;;1.50;0.80;;;8.50;99.90;;;;;;4970793;28;20224;-68
2020/12/24 02:25:36;;;;;;;1.80;0.80;;;8.50;99.90;;;;;;4971593;28;20204;-68
2020/12/24 02:28:02;;;;;;;1.25;0.98;;;8.50;99.90;;;;;;4971421;28;20203;-68
2020/12/24 02:30:29;;;;;;;2.88;1.00;;;8.40;99.90;;;;;;4971300;28;20227;-68
2020/12/24 02:32:55;;;;;;;0.80;0.70;;;8.40;99.90;;;;;;4970741;28;20604;-69
2020/12/24 02:35:21;;;;;;;1.65;1.55;;;8.30;99.90;;;;;;4971609;28;20258;-68
2020/12/24 02:37:48;;;;;;;1.38;1.02;;;8.20;99.90;;;;;;4971358;28;20204;-68
2020/12/24 02:40:14;;;;;;;1.10;0.90;;;8.20;99.90;;;;;;4971200;28;20199;-68
2020/12/24 02:42:41;;;;;;;1.77;0.82;;;8.10;99.90;;;;;;4970666;28;20570;-68
2020/12/24 02:45:07;;;;;;;1.67;0.90;;;8.20;99.90;;;;;;4971164;28;20555;-69
2020/12/24 02:47:36;;;;;;;2.50;1.00;;;8.20;99.90;;;;;;4970957;28;20208;-68
2020/12/24 02:50:04;;;;;;;1.48;1.10;;;8.10;99.90;;;;;;4970802;28;20235;-67
2020/12/24 02:52:30;;;;;;;1.70;0.93;;;8.10;99.90;;;;;;4970532;28;20212;-69
2020/12/24 02:54:57;;;;;;;1.98;1.60;;;8.10;99.90;;;;;;4970885;28;20738;-69
2020/12/24 02:57:23;;;;;;;1.38;0.80;;;8.00;99.90;;;;;;4971271;28;20629;-68
2020/12/24 02:59:49;;;;;;;1.55;0.90;;;8.00;99.90;;;;;;4970904;28;20208;-69
2020/12/24 03:02:15;;;;;;;1.10;0.90;;;7.90;99.90;;;;;;4970207;28;20641;-68
2020/12/24 03:04:42;;;;;;;5.45;1.10;;;7.80;99.90;;;;;;4970850;28;20519;-69
2020/12/24 03:07:08;;;;;;;2.10;0.82;;;7.70;99.90;;;;;;4970722;28;20219;-69
2020/12/24 03:09:34;;;;;;;2.95;0.80;;;7.70;99.90;;;;;;4970862;28;20207;-69
2020/12/24 03:12:01;;;;;;;2.10;1.15;;;7.70;99.90;;;;;;4970046;28;20433;-68
2020/12/24 03:14:27;;;;;;;2.65;1.20;;;7.70;99.90;;;;;;4970839;28;20227;-68
2020/12/24 03:16:53;;;;;;;1.13;0.80;;;7.60;99.90;;;;;;4970282;28;20212;-68
2020/12/24 03:19:20;;;;;;;1.92;0.90;;;7.60;99.90;;;;;;4970650;28;20231;-69
2020/12/24 03:21:46;;;;;;;1.25;0.90;;;7.60;99.90;;;;;;4969835;28;20671;-68
2020/12/24 03:24:12;;;;;;;1.70;0.85;;;7.60;99.90;;;;;;4970466;28;20231;-70
2020/12/24 03:26:38;;;;;;;1.77;1.25;;;7.60;99.90;;;;;;4970557;28;20580;-69
2020/12/24 03:29:05;;;;;;;1.05;0.70;;;7.50;99.90;;;;;;4970540;28;20211;-72
2020/12/24 03:31:33;;;;;;;1.48;0.95;;;7.40;99.90;;;;;;4970005;28;20204;-72
2020/12/24 03:33:59;;;;;;;1.33;0.80;;;7.40;99.90;;;;;;4969968;28;20639;-71
2020/12/24 03:36:25;;;;;;;1.60;0.80;;;7.40;99.90;;;;;;4970364;28;20200;-71
2020/12/24 03:38:52;;;;;;;1.55;0.80;;;7.30;99.90;;;;;;4970083;28;20602;-71
2020/12/24 03:41:18;;;;;;;1.20;0.93;;;7.30;99.90;;;;;;4970144;28;20281;-71
2020/12/24 03:43:44;;;;;;;0.90;0.80;;;7.30;99.90;;;;;;4969713;28;20224;-71
2020/12/24 03:46:11;;;;;;;1.25;0.90;;;7.30;99.90;;;;;;4970056;28;20204;-71
2020/12/24 03:48:37;;;;;;;1.25;0.85;;;7.30;99.90;;;;;;4970448;28;20211;-71
2020/12/24 03:51:04;;;;;;;1.00;0.80;;;7.30;99.90;;;;;;4970367;28;20207;-71
2020/12/24 03:53:30;;;;;;;2.72;1.27;;;7.30;99.90;;;;;;4970024;28;20223;-71
2020/12/24 03:55:56;;;;;;;1.90;0.80;;;7.20;99.90;;;;;;4970422;28;20199;-71
2020/12/24 03:58:22;;;;;;;1.00;0.70;;;7.20;99.90;;;;;;4970620;28;20247;-68
2020/12/24 04:00:48;;;;;;;1.10;0.70;;;7.10;99.90;;;;;;4970244;28;20234;-67
2020/12/24 04:03:16;;;;;;;1.92;0.90;;;7.10;99.90;;;;;;4970029;28;20238;-68
2020/12/24 04:05:42;;;;;;;0.93;0.77;;;7.10;99.90;;;;;;4970735;28;20581;-69
2020/12/24 04:08:08;;;;;;;1.00;0.80;;;7.20;99.90;;;;;;4970427;28;20207;-68
2020/12/24 04:10:34;;;;;;;1.15;0.80;;;7.10;99.90;;;;;;4971975;28;20203;-68
2020/12/24 04:13:01;;;;;;;2.25;0.90;;;7.10;99.90;;;;;;4973732;28;20239;-68
2020/12/24 04:15:27;;;;;;;2.00;1.00;;;7.10;99.90;;;;;;4974395;28;20211;-68
2020/12/24 04:17:53;;;;;;;1.00;0.80;;;7.10;99.90;;;;;;4974074;28;20216;-68
2020/12/24 04:20:20;;;;;;;1.63;0.90;;;7.10;99.90;;;;;;4974059;28;20727;-68
2020/12/24 04:22:46;;;;;;;1.38;0.90;;;7.10;99.90;;;;;;4973568;28;20226;-68
2020/12/24 04:25:13;;;;;;;1.20;1.08;;;7.10;99.90;;;;;;4974387;28;20242;-68
2020/12/24 04:27:39;;;;;;;1.52;1.00;;;7.10;99.90;;;;;;4974173;28;20207;-68
2020/12/24 04:30:05;;;;;;;1.15;0.80;;;7.20;99.90;;;;;;4973846;28;20211;-69
2020/12/24 04:32:32;;;;;;;0.95;0.80;;;7.20;99.90;;;;;;4973815;28;20203;-69
2020/12/24 04:34:58;;;;;;;2.75;0.85;;;7.20;99.90;;;;;;4973853;28;20215;-69
2020/12/24 04:37:25;;;;;;;1.70;0.80;;;7.20;99.90;;;;;;4973969;28;20211;-68
2020/12/24 04:39:51;;;;;;;1.50;0.90;;;7.20;99.90;;;;;;4973778;28;20220;-68
2020/12/24 04:42:20;;;;;;;1.15;0.70;;;7.20;99.90;;;;;;4973485;28;20215;-67
2020/12/24 04:44:48;;;;;;;1.02;0.88;;;7.20;99.90;;;;;;4973672;28;20207;-69
2020/12/24 04:47:16;;;;;;;1.40;1.08;;;7.20;99.90;;;;;;4974097;28;20643;-68
2020/12/24 04:49:42;;;;;;;2.17;0.80;;;7.20;99.90;;;;;;4973660;28;20207;-68
2020/12/24 04:52:09;;;;;;;0.90;0.80;;;7.10;99.90;;;;;;4973449;28;20215;-68
2020/12/24 04:54:38;;;;;;;1.80;0.80;;;7.10;99.90;;;;;;4973701;28;20227;-69
2020/12/24 04:57:07;;;;;;;1.65;0.90;;;7.00;99.90;;;;;;4973462;28;20214;-68
2020/12/24 04:59:34;;;;;;;1.20;0.80;;;6.90;99.90;;;;;;4973453;28;20228;-69
2020/12/24 05:02:01;;;;;;;1.05;0.70;;;6.80;99.90;;;;;;4973007;28;20222;-68
2020/12/24 05:04:27;;;;;;;1.20;0.80;;;6.70;99.90;;;;;;4973391;28;20255;-68
2020/12/24 05:07:01;;;;;;;1.08;0.70;;;6.70;99.90;;;;;;4973271;28;20207;-69
2020/12/24 05:09:27;;;;;;;3.28;2.00;;;6.60;99.90;;;;;;4973430;28;20290;-68
2020/12/24 05:11:54;;;;;;;0.80;0.70;;;6.60;99.90;;;;;;4972758;28;20235;-68
2020/12/24 05:14:22;;;;;;;1.42;0.90;;;6.50;99.90;;;;;;4973213;28;20255;-68
2020/12/24 05:16:59;;;;;;;1.23;0.80;;;6.50;99.90;;;;;;4973109;28;20218;-68
2020/12/24 05:19:26;;;;;;;1.05;0.90;;;6.50;99.90;;;;;;4973227;28;20223;-68
2020/12/24 05:21:53;;;;;;;1.00;0.80;;;6.40;99.90;;;;;;4971148;28;20630;-68
2020/12/24 05:24:24;;;;;;;0.82;0.70;;;6.40;99.90;;;;;;4972918;28;20242;-68
2020/12/24 05:26:51;;;;;;;1.10;0.80;;;6.40;99.90;;;;;;4973143;28;20215;-69
2020/12/24 05:29:18;;;;;;;3.25;1.00;;;6.40;99.90;;;;;;4972940;28;20679;-69
2020/12/24 05:31:45;;;;;;;1.27;0.90;;;6.40;99.90;;;;;;4973947;28;20200;-69
2020/12/24 05:34:19;;;;;;;1.00;0.90;;;6.50;99.90;;;;;;4988880;28;20230;-68
2020/12/24 05:36:45;;;;;;;1.20;0.85;;;6.50;99.90;;;;;;4984530;28;20207;-69
2020/12/24 05:39:11;;;;;;;1.80;1.48;;;6.40;99.90;;;;;;4991012;28;20285;-68
2020/12/24 05:41:38;;;;;;;1.67;0.90;;;6.40;99.90;;;;;;4990378;28;20221;-69
2020/12/24 05:44:06;;;;;;;1.38;1.10;;;6.50;99.90;;;;;;4990144;28;20285;-69
2020/12/24 05:46:44;;;;;;;3.03;1.00;;;6.50;99.90;;;;;;4991050;28;20645;-69
2020/12/24 05:49:16;;;;;;;2.83;1.15;;;6.40;99.90;;;;;;4990923;28;20238;-69
2020/12/24 05:51:48;;;;;;;1.90;0.85;;;6.40;99.90;;;;;;4989823;28;20218;-68
2020/12/24 05:54:15;;;;;;;1.00;0.90;;;6.40;99.90;;;;;;4990818;28;20285;-68
2020/12/24 05:56:43;;;;;;;2.75;1.40;;;6.30;99.90;;;;;;4991030;28;20241;-68
2020/12/24 05:59:14;;;;;;;2.22;0.90;;;6.30;99.90;;;;;;4990112;28;20227;-68
2020/12/24 06:01:48;;;;;;;2.10;1.02;;;6.20;99.90;;;;;;4989788;28;20209;-68
2020/12/24 06:04:27;;;;;;;1.98;0.77;;;6.20;99.90;;;;;;4983898;28;20235;-67
2020/12/24 06:07:05;;;;;;;1.92;0.90;;;6.10;99.90;;;;;;4979404;28;20210;-69
2020/12/24 06:09:36;;;;;;;2.13;0.80;;;6.00;99.90;;;;;;4990109;28;20601;-68
2020/12/24 06:12:16;;;;;;;4.90;1.30;;;6.00;99.90;;;;;;4989260;28;20242;-68
2020/12/24 06:14:47;;;;;;;1.20;1.00;;;6.10;99.90;;;;;;4990160;28;20222;-68
2020/12/24 06:17:15;;;;;;;1.50;1.00;;;6.00;99.90;;;;;;4990219;28;20222;-69
2020/12/24 06:19:42;;;;;;;1.92;1.17;;;6.00;99.90;;;;;;4989500;28;20254;-69
2020/12/24 06:22:09;;;;;;;0.90;0.80;;;6.00;99.90;;;;;;4990108;28;20216;-69
2020/12/24 06:24:39;;;;;;;2.85;1.27;;;6.00;99.90;;;;;;4990087;28;20227;-69
2020/12/24 06:27:10;;;;;;;2.00;1.10;;;6.00;99.90;;;;;;4989443;28;20235;-70
2020/12/24 06:29:42;;;;;;;1.95;1.30;;;6.00;99.90;;;;;;4989525;28;20205;-67
2020/12/24 06:32:12;;;;;;;1.75;1.20;;;6.10;99.90;;;;;;4989239;28;20207;-69
2020/12/24 06:34:41;;;;;;;1.30;1.00;;;6.10;99.90;;;;;;4989125;28;20231;-68
2020/12/24 06:37:18;;;;;;;3.88;1.00;;;6.10;99.90;;;;;;4989815;28;20211;-69
2020/12/24 06:39:46;;;;;;;1.70;1.27;;;6.20;99.90;;;;;;4989540;28;20219;-69
2020/12/24 06:42:38;;;;;;;3.67;1.30;;;6.30;99.90;;;;;;4988778;28;20210;-69
2020/12/24 06:45:06;;;;;;;1.60;1.50;;;6.30;99.90;;;;;;4989421;28;20210;-68
2020/12/24 06:47:32;;;;;;;2.53;1.30;;;6.20;99.90;;;;;;4989520;28;20211;-68
2020/12/24 06:50:00;;;;;;;1.42;1.00;;;6.20;99.90;;;;;;4988868;28;20614;-68
2020/12/24 06:52:30;;;;;;;1.85;1.20;;;6.20;99.90;;;;;;4987720;28;20203;-67
2020/12/24 06:55:13;;;;;;;2.40;1.05;;;6.30;99.90;;;;;;4989242;28;20210;-68
2020/12/24 06:57:41;;;;;;;3.78;1.65;;;6.20;99.90;;;;;;4990407;28;20231;-68
2020/12/24 07:00:19;;;;;;;1.10;1.00;;;6.20;99.90;;;;;;4990467;28;20346;-68
2020/12/24 07:02:48;;;;;;;1.98;1.15;;;6.30;99.90;;;;;;4989928;28;20571;-68
2020/12/24 07:05:43;;;;;;;2.25;1.20;;;6.30;99.90;;;;;;4990737;28;20563;-68
2020/12/24 07:08:10;;;;;;;2.42;1.33;;;6.30;99.90;;;;;;4990652;28;20265;-68
2020/12/24 07:10:46;;;;;;;4.05;1.25;;;6.30;99.90;;;;;;4990309;28;20195;-68
2020/12/24 07:13:33;;;;;;;1.50;1.25;;;6.30;99.90;;;;;;4989800;28;20235;-67
2020/12/24 07:15:59;;;;;;;2.10;1.40;;;6.30;99.90;;;;;;4989973;28;20242;-68
2020/12/24 07:18:27;;;;;;;2.15;1.38;;;6.30;99.90;;;;;;4990415;28;20264;-67
2020/12/24 07:20:55;;;;;;;4.47;1.40;;;6.30;99.90;;;;;;4991115;28;20269;-69
2020/12/24 07:23:29;;;;;;;3.17;1.50;;;6.40;99.90;;;;;;4990000;28;20231;-68
2020/12/24 07:25:57;;;;;;;3.80;3.30;;;6.40;99.90;;;;;;4990230;28;20226;-69
2020/12/24 07:28:28;;;;;;;4.03;2.17;;;6.40;99.90;;;;;;4990509;28;20210;-68
2020/12/24 07:30:58;;;;;;;2.25;1.23;;;6.40;99.90;;;;;;4990045;28;20199;-67
2020/12/24 07:33:25;;;;;;;4.00;1.88;;;6.50;99.90;;;;;;4989555;28;20238;-67
2020/12/24 07:35:52;;;;;;;2.33;1.27;;;6.50;99.90;;;;;;4989835;28;20210;-67
2020/12/24 07:38:20;;;;;;;3.05;1.42;;;6.50;99.90;;;;;;4990146;28;20674;-68
2020/12/24 07:40:46;;;;;;;5.47;1.70;;;6.40;99.90;;;;;;4988795;28;20214;-68
2020/12/24 07:43:13;;;;;;;3.35;1.40;;;6.40;99.90;;;;;;4989348;28;20227;-68
2020/12/24 07:45:39;;;;;;;3.85;1.48;;;6.50;99.90;;;;;;4989259;28;20201;-67
2020/12/24 07:48:13;;;;;;;3.00;1.65;;;6.50;99.90;;;;;;4989812;28;20203;-70
2020/12/24 07:50:40;;;;;;;3.45;1.63;;;6.60;99.90;;;;;;4988868;28;20204;-68
2020/12/24 07:53:08;;;;;;;4.38;1.65;;;6.70;99.90;;;;;;4988316;28;20227;-69
2020/12/24 07:55:35;;;;;;;3.25;1.65;;;6.80;99.90;;;;;;4989011;28;20663;-68
2020/12/24 07:58:08;;;;;;;2.17;1.35;;;6.80;99.90;;;;;;4988732;28;20204;-69
2020/12/24 08:00:42;;;;;;;4.78;1.40;;;6.90;99.90;;;;;;4989233;28;20490;-69
2020/12/24 08:03:09;;;;;;;2.28;1.45;;;7.00;99.90;;;;;;4987301;28;20316;-68
2020/12/24 08:05:36;;;;;;;3.70;1.40;;;7.00;99.90;;;;;;4989129;28;20199;-69
2020/12/24 08:08:02;;;;;;;5.25;1.63;;;7.10;99.90;;;;;;4988663;28;20206;-69
2020/12/24 08:10:28;;;;;;;5.50;1.77;;;7.10;99.90;;;;;;4988674;28;20198;-69
2020/12/24 08:13:03;;;;;;;6.07;2.30;;;7.10;99.90;;;;;;4987938;28;20219;-69
2020/12/24 08:15:32;;;;;;;2.03;1.30;;;7.20;99.90;;;;;;4989062;28;20277;-69
2020/12/24 08:18:01;;;;;;;3.20;1.20;;;7.30;99.90;;;;;;4988980;28;20253;-69
2020/12/24 08:20:34;;;;;;;3.92;1.17;;;7.40;99.90;;;;;;4989359;28;20234;-70
2020/12/24 08:23:10;;;;;;;2.75;1.33;;;7.30;99.90;;;;;;4986842;28;20227;-68
2020/12/24 08:25:37;;;;;;;5.32;1.85;;;7.30;99.90;;;;;;4970536;28;20199;-69
2020/12/24 08:28:04;;;;;;;5.00;2.00;;;7.30;99.90;;;;;;4969908;28;20585;-69
2020/12/24 08:30:31;;;;;;;3.08;1.42;;;7.30;99.90;;;;;;4980272;28;20195;-69
2020/12/24 08:32:59;;;;;;;2.22;1.50;;;7.10;99.90;;;;;;4988543;28;20661;-69
2020/12/24 08:35:29;;;;;;;2.45;1.10;;;7.10;99.90;;;;;;4989298;28;20203;-69
2020/12/24 08:38:08;;;;;;;1.83;1.33;;;7.10;99.90;;;;;;4988584;28;20663;-70
2020/12/24 08:40:37;;;;;;;3.70;1.15;;;7.00;99.90;;;;;;4987527;28;20583;-69
2020/12/24 08:43:06;;;;;;;2.47;1.20;;;6.90;99.90;;;;;;4982171;28;20277;-69
2020/12/24 08:45:33;;;;;;;1.38;1.00;;;6.90;99.90;;;;;;4985965;28;20583;-69
2020/12/24 08:48:00;;;;;;;1.52;1.00;;;6.80;99.90;;;;;;4984533;28;20204;-68
2020/12/24 08:50:30;;;;;;;2.03;1.00;;;6.80;99.90;;;;;;4985181;28;20195;-69
2020/12/24 08:52:56;;;;;;;7.75;2.47;;;6.70;99.90;;;;;;4984700;28;20239;-69
2020/12/24 08:55:27;;;;;;;3.88;1.98;;;6.70;99.90;;;;;;4986393;28;20629;-69
2020/12/24 08:57:54;;;;;;;2.58;1.17;;;6.70;99.90;;;;;;4988613;28;20705;-70
2020/12/24 09:00:23;;;;;;;2.67;1.13;;;6.70;99.90;;;;;;4989349;28;20305;-70
2020/12/24 09:02:50;;;;;;;1.40;0.93;;;6.80;99.90;;;;;;4989021;28;20235;-68
2020/12/24 09:05:23;;;;;;;1.48;0.88;;;6.80;99.90;;;;;;4989761;28;20207;-69
2020/12/24 09:07:49;;;;;;;1.73;1.10;;;6.80;99.90;;;;;;4989627;28;20250;-68
2020/12/24 09:10:17;;;;;;;3.08;1.10;;;6.90;99.90;;;;;;4989700;28;20573;-69
2020/12/24 09:12:45;;;;;;;1.42;0.90;;;7.00;99.90;;;;;;4988470;28;20223;-69
2020/12/24 09:15:13;;;;;;;2.50;0.90;;;7.10;99.90;;;;;;4989207;28;20733;-67
2020/12/24 09:17:50;;;;;;;1.45;0.90;;;7.20;99.90;;;;;;4989536;28;20450;-69
2020/12/24 09:20:22;;;;;;;2.63;1.05;;;7.20;99.90;;;;;;4989510;28;20229;-70
2020/12/24 09:22:50;;;;;;;2.65;1.27;;;7.30;99.90;;;;;;4988108;28;20589;-69
2020/12/24 09:25:28;;;;;;;1.55;0.98;;;7.30;99.90;;;;;;4988908;28;20211;-69
2020/12/24 09:27:54;;;;;;;1.85;1.30;;;7.40;99.90;;;;;;4988741;28;20222;-69
2020/12/24 09:30:21;;;;;;;3.58;1.00;;;7.50;99.90;;;;;;4989139;28;20678;-69
2020/12/24 09:32:54;;;;;;;1.60;0.90;;;7.50;99.90;;;;;;4988020;28;20224;-69
2020/12/24 09:35:21;;;;;;;1.70;0.90;;;7.50;99.90;;;;;;4988710;28;20717;-68
2020/12/24 09:37:48;;;;;;;2.17;1.05;;;7.40;99.90;;;;;;4988928;28;20210;-69
2020/12/24 09:40:14;;;;;;;1.92;1.30;;;7.40;99.90;;;;;;4989270;28;20658;-70
2020/12/24 09:42:40;;;;;;;2.95;1.05;;;7.30;99.90;;;;;;4988127;28;20251;-69
2020/12/24 09:45:06;;;;;;;2.50;1.02;;;7.30;99.90;;;;;;4988392;28;20195;-69
2020/12/24 09:47:33;;;;;;;1.58;1.00;;;7.30;99.90;;;;;;4989193;28;20245;-69
2020/12/24 09:50:00;;;;;;;2.35;1.10;;;7.30;99.90;;;;;;4988851;28;20242;-70
2020/12/24 09:52:26;;;;;;;1.70;0.90;;;7.30;99.90;;;;;;4988122;28;20741;-68
2020/12/24 09:54:52;;;;;;;1.75;0.90;;;7.20;99.90;;;;;;4988690;28;20207;-69
2020/12/24 09:57:18;;;;;;;1.85;0.90;;;7.20;99.90;;;;;;4988793;28;20203;-70
2020/12/24 09:59:44;;;;;;;2.20;0.90;;;7.30;99.90;;;;;;4988528;28;20222;-69
2020/12/24 10:02:10;;;;;;;2.38;1.08;;;7.20;99.90;;;;;;4988636;28;20207;-69
2020/12/24 10:04:37;;;;;;;2.72;1.67;;;7.30;99.90;;;;;;4988364;28;20301;-69
2020/12/24 10:07:04;;;;;;;1.48;0.88;;;7.30;99.90;;;;;;4988483;28;21008;-68
2020/12/24 10:09:30;;;;;;;2.45;1.23;;;7.40;99.90;;;;;;4987461;28;20211;-70
2020/12/24 10:11:56;;;;;;;3.05;1.00;;;7.40;99.90;;;;;;4987786;28;20746;-69
2020/12/24 10:14:22;;;;;;;2.78;1.00;;;7.50;99.90;;;;;;4988331;28;20227;-70
2020/12/24 10:16:48;;;;;;;2.35;1.10;;;7.50;99.90;;;;;;4987862;28;20686;-69
2020/12/24 10:19:15;;;;;;;1.95;1.17;;;7.60;99.90;;;;;;4988474;28;20554;-70
2020/12/24 10:21:41;;;;;;;4.40;1.35;;;7.50;99.90;;;;;;4986990;28;20721;-69
2020/12/24 10:24:08;;;;;;;4.03;0.85;;;7.50;99.90;;;;;;4988088;28;20824;-70
2020/12/24 10:26:34;;;;;;;1.33;1.02;;;7.40;99.90;;;;;;4988092;28;20202;-69
2020/12/24 10:29:00;;;;;;;3.72;1.30;;;7.50;99.90;;;;;;4988177;28;20210;-69
2020/12/24 10:31:27;;;;;;;2.78;1.25;;;7.60;99.90;;;;;;4987930;28;20253;-69
2020/12/24 10:33:53;;;;;;;1.75;1.15;;;7.70;99.90;;;;;;4986806;28;20216;-69
2020/12/24 10:36:21;;;;;;;2.00;1.25;;;7.70;99.90;;;;;;4988747;28;20572;-69
2020/12/24 10:38:47;;;;;;;1.55;1.00;;;7.80;99.90;;;;;;4987834;28;20690;-68
2020/12/24 10:41:14;;;;;;;1.55;1.08;;;7.90;99.90;;;;;;4988859;28;20227;-68
2020/12/24 10:43:40;;;;;;;2.33;1.00;;;8.00;99.90;;;;;;4987683;28;20223;-71
2020/12/24 10:46:07;;;;;;;2.28;1.05;;;8.00;99.90;;;;;;4988143;28;20207;-70
2020/12/24 10:48:34;;;;;;;2.22;1.52;;;8.10;99.90;;;;;;4986509;28;20207;-70
2020/12/24 10:51:00;;;;;;;2.28;1.38;;;8.10;99.90;;;;;;4987163;28;20598;-69
2020/12/24 10:53:26;;;;;;;1.83;0.98;;;8.10;99.90;;;;;;4987987;28;20242;-70
2020/12/24 10:55:52;;;;;;;2.67;1.00;;;8.10;99.90;;;;;;4987089;28;20204;-69
2020/12/24 10:58:19;;;;;;;3.83;2.40;;;8.20;99.90;;;;;;4988362;28;20210;-68
2020/12/24 11:00:45;;;;;;;1.95;1.27;;;8.20;99.90;;;;;;4988082;28;20219;-69
2020/12/24 11:03:11;;;;;;;1.95;0.82;;;8.30;99.90;;;;;;4987202;28;20229;-70
2020/12/24 11:05:38;;;;;;;1.75;0.95;;;8.40;99.90;;;;;;4988279;28;20207;-70
2020/12/24 11:08:04;;;;;;;1.65;0.93;;;8.50;99.90;;;;;;4987244;28;20675;-70
2020/12/24 11:10:30;;;;;;;1.58;0.90;;;8.60;99.90;;;;;;4988367;28;20230;-70
2020/12/24 11:12:56;;;;;;;1.60;0.90;;;8.70;99.90;;;;;;4986820;28;20274;-70
2020/12/24 11:15:23;;;;;;;2.60;2.05;;;8.60;99.90;;;;;;4987918;28;20207;-69
2020/12/24 11:17:49;;;;;;;2.03;0.80;;;8.70;99.90;;;;;;4987773;28;20884;-69
2020/12/24 11:20:15;;;;;;;1.52;0.95;;;8.90;99.90;;;;;;4986555;28;20223;-70
2020/12/24 11:22:42;;;;;;;1.30;0.85;;;9.10;99.90;;;;;;4987420;28;20234;-70
2020/12/24 11:25:08;;;;;;;1.10;0.90;;;9.50;99.90;;;;;;4987215;28;20202;-69
2020/12/24 11:27:34;;;;;;;1.00;0.73;;;10.00;99.90;;;;;;4988090;28;20207;-70
2020/12/24 11:30:00;;;;;;;1.40;0.90;;;11.00;99.90;;;;;;4987280;28;20214;-69
2020/12/24 11:32:29;;;;;;;1.10;1.00;;;11.90;99.90;;;;;;4986910;28;20449;-70
2020/12/24 11:34:55;;;;;;;0.98;0.80;;;12.20;99.90;;;;;;4987465;28;20215;-69
2020/12/24 11:37:21;;;;;;;1.00;0.80;;;12.50;99.90;;;;;;4987364;28;20206;-67
2020/12/24 11:39:47;;;;;;;1.95;1.02;;;12.90;99.90;;;;;;4987468;28;20698;-69
2020/12/24 11:42:14;;;;;;;1.00;0.80;;;13.10;99.90;;;;;;4986790;28;20219;-69
2020/12/24 11:44:40;;;;;;;3.05;1.17;;;13.30;99.90;;;;;;4987170;28;20262;-69
2020/12/24 11:47:06;;;;;;;0.98;0.88;;;14.00;99.90;;;;;;4987381;28;20207;-69
2020/12/24 11:49:33;;;;;;;2.58;1.20;;;14.60;99.90;;;;;;4987339;28;20214;-69
2020/12/24 11:52:03;;;;;;;0.90;0.70;;;15.50;99.90;;;;;;4986721;28;20211;-69
2020/12/24 11:54:29;;;;;;;0.90;0.77;;;15.80;99.90;;;;;;4987434;28;20226;-69
2020/12/24 11:56:55;;;;;;;1.20;0.80;;;15.50;99.90;;;;;;4986684;28;20203;-69
2020/12/24 11:59:21;;;;;;;1.35;0.90;;;15.80;99.90;;;;;;4984551;28;20470;-70
2020/12/24 12:01:49;;;;;;;11.20;5.90;;;16.20;99.90;;;;;;4986273;28;20218;-69
2020/12/24 12:04:16;;;;;;;3.10;2.00;;;16.30;99.90;;;;;;4987011;28;20486;-69
2020/12/24 12:06:43;;;;;;;1.97;1.77;;;16.90;99.90;;;;;;4983777;28;20496;-70
2020/12/24 12:09:09;;;;;;;1.83;1.20;;;17.20;99.90;;;;;;4987098;28;20466;-70
2020/12/24 12:11:35;;;;;;;3.00;1.40;;;17.00;99.90;;;;;;4986237;28;20470;-69
2020/12/24 12:14:02;;;;;;;1.20;1.00;;;16.70;99.90;;;;;;4981374;28;20835;-70
2020/12/24 12:16:28;;;;;;;1.70;1.10;;;16.30;99.90;;;;;;4985573;28;20480;-71
2020/12/24 12:18:55;;;;;;;2.17;1.00;;;15.40;99.90;;;;;;4985566;28;20466;-70
2020/12/24 12:21:22;;;;;;;1.27;1.00;;;14.90;99.90;;;;;;4984690;28;21035;-70
2020/12/24 12:23:49;;;;;;;3.03;0.90;;;15.30;99.90;;;;;;4985744;28;20489;-69
2020/12/24 12:26:16;;;;;;;1.93;0.77;;;15.50;99.90;;;;;;4985830;28;20461;-70
2020/12/24 12:28:43;;;;;;;5.60;1.10;;;15.40;99.90;;;;;;4985615;28;20558;-70
2020/12/24 12:31:16;;;;;;;1.30;1.20;;;15.20;99.90;;;;;;4986980;28;20494;-70
2020/12/24 12:33:42;;;;;;;1.13;0.80;;;14.90;99.90;;;;;;4988757;28;21201;-70
2020/12/24 12:36:09;;;;;;;1.17;0.80;;;14.10;99.90;;;;;;4989299;28;20505;-69
2020/12/24 12:38:35;;;;;;;1.45;1.08;;;13.20;99.90;;;;;;4990330;28;20856;-69
2020/12/24 12:41:03;;;;;;;1.10;0.80;;;12.80;99.90;;;;;;4988951;28;20241;-69
2020/12/24 12:43:29;;;;;;;1.73;0.95;;;12.30;99.90;;;;;;4988966;28;20349;-69
2020/12/24 12:45:56;;;;;;;2.38;0.85;;;12.40;99.90;;;;;;4989026;28;20230;-70
2020/12/24 12:48:22;;;;;;;3.17;0.88;;;12.90;99.90;;;;;;4990092;28;20231;-70
2020/12/24 12:50:48;;;;;;;1.10;0.90;;;13.00;99.90;;;;;;4988964;28;20781;-71
2020/12/24 12:53:15;;;;;;;1.48;0.80;;;12.80;99.90;;;;;;4988592;28;20285;-70
2020/12/24 12:55:41;;;;;;;2.20;1.00;;;12.00;99.90;;;;;;4989244;28;20223;-70
2020/12/24 12:58:08;;;;;;;1.10;0.80;;;11.20;99.90;;;;;;4987737;28;20207;-70